Terminal Aerodrome Forecast
Issued by NWS

Current Version | Previous Version | Graphics & Text | Print | Product List | Glossary On
Versions: 1 2 3 4 5 6 7 8 9 10 11 12 13 14 15 16 17 18 19 20 21 22 23 24 25 26
850
FTUS41 KPBZ 141132
TAFHLG
TAF
KHLG 141132Z 1412/1512 VRB04KT P6SM SCT040
      TEMPO 1412/1414 BKN040=

USA.gov is the U.S. government's official web portal to all federal, state and local government web resources and services.